CEB959 RPLL-RPMD
Flight info
| Callsign | CEB959 |
|---|---|
| Flight time | 1h 26m |
| Altitude | 35000 |
| Route | IPATA2V IPATA B462 MASBA W9A BN W9 RIMAR RIMAR2R |
| Aircraft | A21N/M-SDE3FGHIRWY/LB1 |
Departure
| Time | 2026-05-01 12:41 |
|---|---|
| Airport | Ninoy Aquino International Airport (RPLL) |
Arrival
| Time | 2026-05-01 14:07 |
|---|---|
| Airport | Francisco Bangoy International Airport (RPMD) |
| Time | Latitude | Longitude | Altitude | Speed | Heading |
|---|---|---|---|---|---|
| 2026-05-01 11:55 | 14.52277 | 121.00844 | 82 ft | 0 kts | 45° |
| 2026-05-01 12:28 | 14.52276 | 121.00843 | 82 ft | 1 kts | 45° |
| 2026-05-01 12:29 | 14.52266 | 121.00832 | 82 ft | 2 kts | 45° |
| 2026-05-01 12:29 | 14.52256 | 121.00822 | 82 ft | 2 kts | 45° |
| 2026-05-01 12:29 | 14.52229 | 121.00809 | 82 ft | 2 kts | 1° |
| 2026-05-01 12:30 | 14.52201 | 121.00819 | 82 ft | 2 kts | 316° |
| 2026-05-01 12:30 | 14.52191 | 121.00830 | 82 ft | 2 kts | 314° |
| 2026-05-01 12:30 | 14.52180 | 121.00841 | 82 ft | 2 kts | 316° |
| 2026-05-01 12:31 | 14.52170 | 121.00851 | 82 ft | 2 kts | 314° |
| 2026-05-01 12:31 | 14.52159 | 121.00862 | 82 ft | 2 kts | 315° |
| 2026-05-01 12:31 | 14.52149 | 121.00874 | 82 ft | 2 kts | 315° |
| 2026-05-01 12:31 | 14.52144 | 121.00878 | 82 ft | 0 kts | 315° |
| 2026-05-01 12:36 | 14.52145 | 121.00877 | 82 ft | 1 kts | 315° |
| 2026-05-01 12:36 | 14.52163 | 121.00859 | 82 ft | 5 kts | 315° |
| 2026-05-01 12:36 | 14.52204 | 121.00816 | 82 ft | 10 kts | 315° |
| 2026-05-01 12:37 | 14.52265 | 121.00754 | 82 ft | 13 kts | 314° |
| 2026-05-01 12:37 | 14.52335 | 121.00680 | 82 ft | 14 kts | 315° |
| 2026-05-01 12:37 | 14.52409 | 121.00605 | 82 ft | 14 kts | 315° |
| 2026-05-01 12:37 | 14.52478 | 121.00534 | 82 ft | 11 kts | 315° |
| 2026-05-01 12:38 | 14.52479 | 121.00481 | 82 ft | 7 kts | 231° |
| 2026-05-01 12:38 | 14.52454 | 121.00452 | 82 ft | 0 kts | 226° |
| 2026-05-01 12:39 | 14.52444 | 121.00441 | 82 ft | 4 kts | 226° |
| 2026-05-01 12:39 | 14.52404 | 121.00405 | 82 ft | 9 kts | 200° |
| 2026-05-01 12:39 | 14.52344 | 121.00427 | 82 ft | 9 kts | 139° |
| 2026-05-01 12:40 | 14.52297 | 121.00473 | 82 ft | 11 kts | 135° |
| 2026-05-01 12:40 | 14.52094 | 121.00683 | 82 ft | 81 kts | 134° |
| 2026-05-01 12:40 | 14.51514 | 121.01281 | 82 ft | 151 kts | 135° |
| 2026-05-01 12:40 | 14.50713 | 121.02085 | 579 ft | 161 kts | 134° |
| 2026-05-01 12:41 | 14.49921 | 121.02875 | 1282 ft | 163 kts | 133° |
| 2026-05-01 12:41 | 14.49132 | 121.03690 | 1981 ft | 159 kts | 130° |
| 2026-05-01 12:41 | 14.48356 | 121.04510 | 2415 ft | 158 kts | 130° |
| 2026-05-01 12:41 | 14.47586 | 121.05321 | 2806 ft | 159 kts | 130° |
| 2026-05-01 12:42 | 14.46813 | 121.06133 | 3187 ft | 161 kts | 131° |
| 2026-05-01 12:42 | 14.45995 | 121.06985 | 3463 ft | 171 kts | 131° |
| 2026-05-01 12:42 | 14.45129 | 121.07885 | 3695 ft | 184 kts | 132° |
| 2026-05-01 12:42 | 14.44197 | 121.08852 | 3948 ft | 198 kts | 132° |
| 2026-05-01 12:43 | 14.43229 | 121.09951 | 4227 ft | 212 kts | 126° |
| 2026-05-01 12:43 | 14.42351 | 121.11234 | 4508 ft | 227 kts | 121° |
| 2026-05-01 12:43 | 14.41451 | 121.12669 | 4766 ft | 246 kts | 120° |
| 2026-05-01 12:43 | 14.40502 | 121.14201 | 5102 ft | 263 kts | 120° |
| 2026-05-01 12:44 | 14.39499 | 121.15813 | 5631 ft | 270 kts | 120° |
| 2026-05-01 12:44 | 14.38488 | 121.17438 | 6268 ft | 272 kts | 120° |
| 2026-05-01 12:44 | 14.36430 | 121.20747 | 7528 ft | 277 kts | 120° |
| 2026-05-01 12:45 | 14.34329 | 121.24122 | 8733 ft | 281 kts | 120° |
| 2026-05-01 12:45 | 14.33284 | 121.25802 | 9331 ft | 283 kts | 120° |
| 2026-05-01 12:45 | 14.32208 | 121.27531 | 9908 ft | 285 kts | 120° |
| 2026-05-01 12:46 | 14.31145 | 121.29240 | 10414 ft | 290 kts | 120° |
| 2026-05-01 12:46 | 14.30031 | 121.31035 | 10660 ft | 304 kts | 120° |
| 2026-05-01 12:46 | 14.28853 | 121.32931 | 10907 ft | 317 kts | 120° |
| 2026-05-01 12:46 | 14.27649 | 121.34864 | 11308 ft | 323 kts | 120° |
| 2026-05-01 12:47 | 14.26444 | 121.36796 | 11811 ft | 326 kts | 120° |
| 2026-05-01 12:47 | 14.25207 | 121.38776 | 12312 ft | 328 kts | 120° |
| 2026-05-01 12:47 | 14.23970 | 121.40759 | 12809 ft | 330 kts | 120° |
| 2026-05-01 12:47 | 14.22719 | 121.42759 | 13273 ft | 333 kts | 120° |
| 2026-05-01 12:48 | 14.21466 | 121.44762 | 13729 ft | 335 kts | 120° |
| 2026-05-01 12:48 | 14.20203 | 121.46783 | 14195 ft | 337 kts | 120° |
| 2026-05-01 12:48 | 14.18940 | 121.48805 | 14639 ft | 339 kts | 120° |
| 2026-05-01 12:48 | 14.17648 | 121.50875 | 15075 ft | 342 kts | 120° |
| 2026-05-01 12:49 | 14.16372 | 121.52917 | 15508 ft | 343 kts | 120° |
| 2026-05-01 12:49 | 14.15070 | 121.55002 | 15918 ft | 346 kts | 121° |
| 2026-05-01 12:49 | 14.13766 | 121.57086 | 16317 ft | 348 kts | 121° |
| 2026-05-01 12:49 | 14.12451 | 121.59188 | 16723 ft | 350 kts | 121° |
| 2026-05-01 12:50 | 14.11121 | 121.61306 | 17113 ft | 352 kts | 122° |
| 2026-05-01 12:50 | 14.09612 | 121.63299 | 17483 ft | 356 kts | 130° |
| 2026-05-01 12:50 | 14.07832 | 121.65077 | 17864 ft | 359 kts | 137° |
| 2026-05-01 12:50 | 14.05840 | 121.66671 | 18236 ft | 362 kts | 141° |
| 2026-05-01 12:51 | 14.03798 | 121.68225 | 18596 ft | 364 kts | 141° |
| 2026-05-01 12:51 | 14.01747 | 121.69776 | 18942 ft | 366 kts | 141° |
| 2026-05-01 12:51 | 13.97618 | 121.72913 | 19621 ft | 371 kts | 142° |
| 2026-05-01 12:52 | 13.95549 | 121.74490 | 19938 ft | 373 kts | 142° |
| 2026-05-01 12:52 | 13.91344 | 121.77693 | 20566 ft | 377 kts | 142° |
| 2026-05-01 12:52 | 13.89210 | 121.79324 | 20870 ft | 380 kts | 141° |
| 2026-05-01 12:53 | 13.85254 | 121.82989 | 21466 ft | 383 kts | 132° |
| 2026-05-01 12:53 | 13.83502 | 121.85046 | 21753 ft | 384 kts | 129° |
| 2026-05-01 12:53 | 13.81770 | 121.87165 | 22038 ft | 387 kts | 129° |
| 2026-05-01 12:54 | 13.80041 | 121.89292 | 22316 ft | 389 kts | 129° |
| 2026-05-01 12:54 | 13.76552 | 121.93581 | 22884 ft | 393 kts | 129° |
| 2026-05-01 12:54 | 13.74803 | 121.95726 | 23153 ft | 395 kts | 129° |
| 2026-05-01 12:55 | 13.71233 | 122.00101 | 23708 ft | 399 kts | 129° |
| 2026-05-01 12:55 | 13.69461 | 122.02271 | 23981 ft | 401 kts | 129° |
| 2026-05-01 12:55 | 13.67640 | 122.04500 | 24271 ft | 403 kts | 130° |
| 2026-05-01 12:56 | 13.65850 | 122.06691 | 24566 ft | 404 kts | 130° |
| 2026-05-01 12:56 | 13.64030 | 122.08916 | 24851 ft | 405 kts | 130° |
| 2026-05-01 12:56 | 13.62223 | 122.11127 | 25126 ft | 407 kts | 130° |
| 2026-05-01 12:56 | 13.60394 | 122.13360 | 25386 ft | 409 kts | 130° |
| 2026-05-01 12:57 | 13.58547 | 122.15617 | 25635 ft | 411 kts | 130° |
| 2026-05-01 12:57 | 13.54861 | 122.20119 | 26144 ft | 414 kts | 130° |
| 2026-05-01 12:57 | 13.52993 | 122.22399 | 26414 ft | 415 kts | 130° |
| 2026-05-01 12:58 | 13.51134 | 122.24669 | 26668 ft | 417 kts | 130° |
| 2026-05-01 12:58 | 13.49254 | 122.26963 | 26923 ft | 418 kts | 130° |
| 2026-05-01 12:58 | 13.47394 | 122.29231 | 27175 ft | 419 kts | 130° |
| 2026-05-01 12:59 | 13.43611 | 122.33847 | 27677 ft | 422 kts | 130° |
| 2026-05-01 12:59 | 13.41722 | 122.36149 | 27905 ft | 423 kts | 130° |
| 2026-05-01 12:59 | 13.37906 | 122.40799 | 28383 ft | 426 kts | 130° |
| 2026-05-01 13:00 | 13.34070 | 122.45472 | 28878 ft | 429 kts | 130° |
| 2026-05-01 13:00 | 13.32146 | 122.47814 | 29098 ft | 430 kts | 131° |
| 2026-05-01 13:01 | 13.28287 | 122.52509 | 29538 ft | 434 kts | 130° |
| 2026-05-01 13:01 | 13.26343 | 122.54873 | 29748 ft | 435 kts | 131° |
| 2026-05-01 13:01 | 13.22393 | 122.59678 | 30185 ft | 439 kts | 131° |
| 2026-05-01 13:02 | 13.20440 | 122.62053 | 30396 ft | 440 kts | 131° |
| 2026-05-01 13:07 | 12.77745 | 123.13796 | 34896 ft | 460 kts | 131° |
| 2026-05-01 13:07 | 12.75682 | 123.16287 | 34895 ft | 461 kts | 131° |
| 2026-05-01 13:08 | 12.71537 | 123.21292 | 34892 ft | 461 kts | 131° |
| 2026-05-01 13:08 | 12.67399 | 123.26289 | 34890 ft | 461 kts | 131° |
| 2026-05-01 13:09 | 12.63225 | 123.31326 | 34890 ft | 460 kts | 131° |
| 2026-05-01 13:09 | 12.59096 | 123.36307 | 34889 ft | 460 kts | 131° |
| 2026-05-01 13:10 | 12.54965 | 123.41287 | 34892 ft | 460 kts | 131° |
| 2026-05-01 13:10 | 12.50812 | 123.46295 | 34893 ft | 460 kts | 131° |
| 2026-05-01 13:11 | 12.46683 | 123.51276 | 34893 ft | 459 kts | 131° |
| 2026-05-01 13:11 | 12.42536 | 123.56238 | 34891 ft | 458 kts | 133° |
| 2026-05-01 13:12 | 12.38020 | 123.60823 | 34893 ft | 457 kts | 140° |
| 2026-05-01 13:12 | 12.32989 | 123.64834 | 34893 ft | 456 kts | 146° |
| 2026-05-01 13:13 | 12.27547 | 123.68198 | 34892 ft | 455 kts | 152° |
| 2026-05-01 13:13 | 12.21985 | 123.71262 | 34888 ft | 455 kts | 153° |
| 2026-05-01 13:14 | 12.16378 | 123.74346 | 34888 ft | 455 kts | 153° |
| 2026-05-01 13:14 | 12.10814 | 123.77411 | 34883 ft | 455 kts | 152° |
| 2026-05-01 13:15 | 12.05241 | 123.80481 | 34883 ft | 454 kts | 152° |
| 2026-05-01 13:15 | 11.99650 | 123.83560 | 34883 ft | 454 kts | 152° |
| 2026-05-01 13:16 | 11.94089 | 123.86623 | 34883 ft | 454 kts | 152° |
| 2026-05-01 13:16 | 11.88516 | 123.89690 | 34883 ft | 454 kts | 152° |
| 2026-05-01 13:17 | 11.77312 | 123.95853 | 34884 ft | 453 kts | 152° |
| 2026-05-01 13:18 | 11.68964 | 124.00441 | 34893 ft | 452 kts | 152° |
| 2026-05-01 13:18 | 11.63405 | 124.03494 | 34896 ft | 452 kts | 152° |
| 2026-05-01 13:19 | 11.57872 | 124.06531 | 34894 ft | 451 kts | 152° |
| 2026-05-01 13:20 | 11.49554 | 124.11095 | 34894 ft | 452 kts | 152° |
| 2026-05-01 13:20 | 11.44009 | 124.14137 | 34895 ft | 452 kts | 152° |
| 2026-05-01 13:21 | 11.35716 | 124.18684 | 34895 ft | 451 kts | 152° |
| 2026-05-01 13:21 | 11.30164 | 124.21726 | 34895 ft | 451 kts | 152° |
| 2026-05-01 13:22 | 11.24639 | 124.24754 | 34892 ft | 450 kts | 152° |
| 2026-05-01 13:22 | 11.19120 | 124.27776 | 34891 ft | 450 kts | 152° |
| 2026-05-01 13:23 | 11.13619 | 124.30791 | 34895 ft | 449 kts | 152° |
| 2026-05-01 13:23 | 11.08093 | 124.33816 | 34899 ft | 450 kts | 152° |
| 2026-05-01 13:24 | 11.02538 | 124.36817 | 34902 ft | 450 kts | 152° |
| 2026-05-01 13:25 | 10.94205 | 124.41295 | 34903 ft | 450 kts | 152° |
| 2026-05-01 13:25 | 10.88651 | 124.44287 | 34905 ft | 449 kts | 152° |
| 2026-05-01 13:26 | 10.83088 | 124.47285 | 34903 ft | 449 kts | 152° |
| 2026-05-01 13:26 | 10.77572 | 124.50256 | 34900 ft | 449 kts | 152° |
| 2026-05-01 13:27 | 10.72028 | 124.53252 | 34893 ft | 449 kts | 152° |
| 2026-05-01 13:27 | 10.63767 | 124.57733 | 34887 ft | 449 kts | 152° |
| 2026-05-01 13:28 | 10.55495 | 124.62221 | 34885 ft | 449 kts | 152° |
| 2026-05-01 13:29 | 10.44470 | 124.68201 | 34883 ft | 448 kts | 152° |
| 2026-05-01 13:31 | 10.27915 | 124.77171 | 34885 ft | 449 kts | 152° |
| 2026-05-01 13:32 | 10.14094 | 124.84653 | 34886 ft | 449 kts | 152° |
| 2026-05-01 13:33 | 10.00280 | 124.92123 | 34883 ft | 449 kts | 152° |
| 2026-05-01 13:34 | 9.89234 | 124.98094 | 34881 ft | 450 kts | 151° |
| 2026-05-01 13:35 | 9.80914 | 125.02593 | 34881 ft | 450 kts | 151° |
| 2026-05-01 13:36 | 9.72583 | 125.07084 | 34871 ft | 449 kts | 152° |
| 2026-05-01 13:36 | 9.64331 | 125.11529 | 34872 ft | 449 kts | 151° |
| 2026-05-01 13:37 | 9.58787 | 125.14508 | 34872 ft | 450 kts | 152° |
| 2026-05-01 13:37 | 9.53240 | 125.17458 | 34868 ft | 450 kts | 152° |
| 2026-05-01 13:38 | 9.44913 | 125.21890 | 34875 ft | 450 kts | 152° |
| 2026-05-01 13:39 | 9.39359 | 125.24848 | 34872 ft | 450 kts | 152° |
| 2026-05-01 13:39 | 9.33797 | 125.27812 | 34878 ft | 450 kts | 152° |
| 2026-05-01 13:40 | 9.28273 | 125.30754 | 34878 ft | 450 kts | 152° |
| 2026-05-01 13:40 | 9.22719 | 125.33714 | 34877 ft | 450 kts | 151° |
| 2026-05-01 13:41 | 9.17154 | 125.36678 | 34872 ft | 450 kts | 151° |
| 2026-05-01 13:41 | 9.11592 | 125.39640 | 34879 ft | 450 kts | 151° |
| 2026-05-01 13:42 | 9.06045 | 125.42593 | 34884 ft | 450 kts | 151° |
| 2026-05-01 13:42 | 9.00468 | 125.45403 | 34878 ft | 450 kts | 155° |
| 2026-05-01 13:43 | 8.94554 | 125.47571 | 34890 ft | 450 kts | 162° |
| 2026-05-01 13:43 | 8.88374 | 125.48977 | 34751 ft | 452 kts | 170° |
| 2026-05-01 13:43 | 8.85331 | 125.49375 | 34310 ft | 451 kts | 173° |
| 2026-05-01 13:44 | 8.82231 | 125.49696 | 33743 ft | 448 kts | 173° |
| 2026-05-01 13:44 | 8.79096 | 125.50009 | 33070 ft | 446 kts | 173° |
| 2026-05-01 13:44 | 8.76002 | 125.50318 | 32401 ft | 445 kts | 173° |
| 2026-05-01 13:44 | 8.72951 | 125.50623 | 31768 ft | 444 kts | 173° |
| 2026-05-01 13:45 | 8.69864 | 125.50934 | 31326 ft | 439 kts | 172° |
| 2026-05-01 13:45 | 8.66817 | 125.51244 | 30876 ft | 435 kts | 172° |
| 2026-05-01 13:45 | 8.63847 | 125.51546 | 30424 ft | 431 kts | 172° |
| 2026-05-01 13:45 | 8.60843 | 125.51853 | 29960 ft | 427 kts | 172° |
| 2026-05-01 13:46 | 8.57893 | 125.52154 | 29505 ft | 424 kts | 172° |
| 2026-05-01 13:46 | 8.54977 | 125.52451 | 29055 ft | 420 kts | 172° |
| 2026-05-01 13:46 | 8.52076 | 125.52744 | 28598 ft | 417 kts | 172° |
| 2026-05-01 13:46 | 8.49163 | 125.53011 | 28138 ft | 414 kts | 172° |
| 2026-05-01 13:47 | 8.46313 | 125.53263 | 27687 ft | 411 kts | 172° |
| 2026-05-01 13:47 | 8.43472 | 125.53513 | 27235 ft | 408 kts | 172° |
| 2026-05-01 13:47 | 8.40619 | 125.53766 | 26783 ft | 405 kts | 172° |
| 2026-05-01 13:47 | 8.37832 | 125.54015 | 26337 ft | 403 kts | 172° |
| 2026-05-01 13:48 | 8.35043 | 125.54264 | 25892 ft | 400 kts | 172° |
| 2026-05-01 13:48 | 8.32268 | 125.54513 | 25446 ft | 398 kts | 172° |
| 2026-05-01 13:48 | 8.29506 | 125.54761 | 24999 ft | 396 kts | 172° |
| 2026-05-01 13:48 | 8.26780 | 125.55006 | 24556 ft | 393 kts | 172° |
| 2026-05-01 13:49 | 8.24030 | 125.55252 | 24109 ft | 391 kts | 172° |
| 2026-05-01 13:49 | 8.21317 | 125.55496 | 23662 ft | 390 kts | 172° |
| 2026-05-01 13:49 | 8.18642 | 125.55736 | 23223 ft | 388 kts | 172° |
| 2026-05-01 13:49 | 8.15945 | 125.55978 | 22769 ft | 387 kts | 172° |
| 2026-05-01 13:50 | 8.13244 | 125.56220 | 22311 ft | 385 kts | 172° |
| 2026-05-01 13:50 | 8.10844 | 125.56437 | 21912 ft | 384 kts | 172° |
| 2026-05-01 13:50 | 8.08163 | 125.56679 | 21461 ft | 383 kts | 172° |
| 2026-05-01 13:50 | 8.05518 | 125.56918 | 21015 ft | 382 kts | 172° |
| 2026-05-01 13:51 | 8.02851 | 125.57158 | 20559 ft | 381 kts | 172° |
| 2026-05-01 13:51 | 8.00212 | 125.57394 | 20103 ft | 380 kts | 172° |
| 2026-05-01 13:51 | 7.97563 | 125.57469 | 19644 ft | 381 kts | 180° |
| 2026-05-01 13:51 | 7.94934 | 125.57124 | 19191 ft | 383 kts | 190° |
| 2026-05-01 13:52 | 7.92331 | 125.56435 | 18730 ft | 382 kts | 194° |
| 2026-05-01 13:52 | 7.89802 | 125.55682 | 18283 ft | 382 kts | 194° |
| 2026-05-01 13:52 | 7.87211 | 125.54901 | 17803 ft | 381 kts | 194° |
| 2026-05-01 13:52 | 7.84679 | 125.54143 | 17344 ft | 380 kts | 194° |
| 2026-05-01 13:53 | 7.82130 | 125.53384 | 16887 ft | 378 kts | 194° |
| 2026-05-01 13:53 | 7.77077 | 125.51895 | 15978 ft | 375 kts | 194° |
| 2026-05-01 13:53 | 7.74587 | 125.51163 | 15536 ft | 373 kts | 194° |
| 2026-05-01 13:54 | 7.72088 | 125.50429 | 15084 ft | 371 kts | 194° |
| 2026-05-01 13:54 | 7.69626 | 125.49706 | 14644 ft | 369 kts | 194° |
| 2026-05-01 13:54 | 7.67153 | 125.48981 | 14197 ft | 367 kts | 194° |
| 2026-05-01 13:54 | 7.64682 | 125.48256 | 13753 ft | 365 kts | 194° |
| 2026-05-01 13:55 | 7.62270 | 125.47549 | 13326 ft | 362 kts | 194° |
| 2026-05-01 13:55 | 7.59826 | 125.46833 | 12895 ft | 360 kts | 194° |
| 2026-05-01 13:55 | 7.57440 | 125.46133 | 12468 ft | 357 kts | 194° |
| 2026-05-01 13:55 | 7.55036 | 125.45428 | 12032 ft | 355 kts | 194° |
| 2026-05-01 13:56 | 7.52674 | 125.44737 | 11598 ft | 353 kts | 194° |
| 2026-05-01 13:56 | 7.50328 | 125.44050 | 11163 ft | 351 kts | 194° |
| 2026-05-01 13:56 | 7.47989 | 125.43366 | 10730 ft | 348 kts | 194° |
| 2026-05-01 13:56 | 7.45659 | 125.42683 | 10337 ft | 344 kts | 194° |
| 2026-05-01 13:57 | 7.43391 | 125.42019 | 10191 ft | 332 kts | 194° |
| 2026-05-01 13:57 | 7.41201 | 125.41377 | 10060 ft | 320 kts | 194° |
| 2026-05-01 13:57 | 7.39063 | 125.40751 | 9769 ft | 314 kts | 194° |
| 2026-05-01 13:57 | 7.36987 | 125.40144 | 9583 ft | 305 kts | 194° |
| 2026-05-01 13:58 | 7.34966 | 125.39609 | 9322 ft | 298 kts | 187° |
| 2026-05-01 13:58 | 7.32907 | 125.39565 | 8958 ft | 292 kts | 170° |
| 2026-05-01 13:58 | 7.30909 | 125.39938 | 8592 ft | 290 kts | 166° |
| 2026-05-01 13:58 | 7.28944 | 125.40381 | 8222 ft | 288 kts | 165° |
| 2026-05-01 13:59 | 7.26984 | 125.40824 | 7863 ft | 287 kts | 165° |
| 2026-05-01 13:59 | 7.25016 | 125.41257 | 7492 ft | 285 kts | 166° |
| 2026-05-01 13:59 | 7.23065 | 125.41679 | 7127 ft | 284 kts | 166° |
| 2026-05-01 13:59 | 7.21133 | 125.42090 | 6802 ft | 281 kts | 166° |
| 2026-05-01 14:00 | 7.19222 | 125.42493 | 6513 ft | 276 kts | 166° |
| 2026-05-01 14:00 | 7.17352 | 125.42887 | 6207 ft | 272 kts | 166° |
| 2026-05-01 14:00 | 7.15515 | 125.43276 | 5818 ft | 268 kts | 166° |
| 2026-05-01 14:00 | 7.13695 | 125.43660 | 5508 ft | 264 kts | 167° |
| 2026-05-01 14:01 | 7.11899 | 125.44038 | 5230 ft | 260 kts | 167° |
| 2026-05-01 14:01 | 7.10136 | 125.44410 | 4986 ft | 255 kts | 167° |
| 2026-05-01 14:01 | 7.08390 | 125.44778 | 4756 ft | 249 kts | 167° |
| 2026-05-01 14:01 | 7.06768 | 125.45300 | 4515 ft | 243 kts | 151° |
| 2026-05-01 14:02 | 7.05382 | 125.46268 | 4191 ft | 240 kts | 139° |
| 2026-05-01 14:02 | 7.04134 | 125.47356 | 3969 ft | 235 kts | 137° |
| 2026-05-01 14:02 | 7.02901 | 125.48452 | 3666 ft | 233 kts | 137° |
| 2026-05-01 14:02 | 7.01709 | 125.49515 | 3476 ft | 225 kts | 134° |
| 2026-05-01 14:03 | 7.00958 | 125.50796 | 3311 ft | 209 kts | 99° |
| 2026-05-01 14:03 | 7.01254 | 125.52148 | 3082 ft | 196 kts | 55° |
| 2026-05-01 14:03 | 7.02167 | 125.53117 | 2892 ft | 185 kts | 42° |
| 2026-05-01 14:03 | 7.03104 | 125.53966 | 2680 ft | 176 kts | 42° |
| 2026-05-01 14:04 | 7.03970 | 125.54804 | 2424 ft | 171 kts | 44° |
| 2026-05-01 14:04 | 7.04783 | 125.55655 | 2159 ft | 163 kts | 46° |
| 2026-05-01 14:04 | 7.05548 | 125.56495 | 1913 ft | 162 kts | 47° |
| 2026-05-01 14:04 | 7.06296 | 125.57340 | 1667 ft | 156 kts | 47° |
| 2026-05-01 14:05 | 7.06985 | 125.58128 | 1440 ft | 146 kts | 48° |
| 2026-05-01 14:05 | 7.07661 | 125.58907 | 1251 ft | 146 kts | 48° |
| 2026-05-01 14:05 | 7.08325 | 125.59673 | 1065 ft | 145 kts | 49° |
| 2026-05-01 14:05 | 7.08990 | 125.60445 | 895 ft | 145 kts | 49° |
| 2026-05-01 14:06 | 7.09656 | 125.61211 | 735 ft | 145 kts | 48° |
| 2026-05-01 14:06 | 7.10320 | 125.61973 | 539 ft | 144 kts | 49° |
| 2026-05-01 14:06 | 7.10966 | 125.62731 | 329 ft | 144 kts | 49° |
| 2026-05-01 14:06 | 7.11622 | 125.63496 | 160 ft | 143 kts | 49° |
| 2026-05-01 14:07 | 7.12248 | 125.64229 | 113 ft | 126 kts | 47° |
| 2026-05-01 14:07 | 7.12713 | 125.64765 | 112 ft | 76 kts | 49° |
| 2026-05-01 14:07 | 7.12951 | 125.65043 | 112 ft | 37 kts | 49° |
| 2026-05-01 14:08 | 7.13221 | 125.65360 | 112 ft | 20 kts | 50° |
| 2026-05-01 14:08 | 7.13314 | 125.65463 | 112 ft | 18 kts | 49° |
| 2026-05-01 14:08 | 7.13384 | 125.65512 | 112 ft | 8 kts | 355° |
| 2026-05-01 14:08 | 7.13425 | 125.65527 | 112 ft | 6 kts | 85° |
| 2026-05-01 14:09 | 7.13387 | 125.65542 | 112 ft | 8 kts | 205° |
| 2026-05-01 14:09 | 7.13332 | 125.65485 | 112 ft | 14 kts | 229° |
| 2026-05-01 14:09 | 7.13255 | 125.65397 | 112 ft | 19 kts | 229° |
| 2026-05-01 14:09 | 7.13159 | 125.65283 | 112 ft | 22 kts | 229° |
| 2026-05-01 14:10 | 7.13054 | 125.65163 | 112 ft | 22 kts | 229° |
| 2026-05-01 14:10 | 7.12954 | 125.65046 | 112 ft | 21 kts | 229° |
| 2026-05-01 14:10 | 7.12881 | 125.64960 | 112 ft | 11 kts | 237° |
| 2026-05-01 14:10 | 7.12905 | 125.64899 | 112 ft | 11 kts | 319° |
| 2026-05-01 14:11 | 7.12971 | 125.64842 | 112 ft | 12 kts | 319° |
| 2026-05-01 14:11 | 7.12972 | 125.64722 | 112 ft | 10 kts | 229° |
| 2026-05-01 14:11 | 7.12922 | 125.64663 | 112 ft | 11 kts | 229° |
| 2026-05-01 14:12 | 7.12870 | 125.64603 | 112 ft | 11 kts | 229° |
| 2026-05-01 14:12 | 7.12859 | 125.64556 | 112 ft | 7 kts | 304° |
| 2026-05-01 14:12 | 7.12889 | 125.64525 | 112 ft | 4 kts | 316° |
| 2026-05-01 14:12 | 7.12903 | 125.64513 | 112 ft | 2 kts | 319° |
| 2026-05-01 14:13 | 7.12908 | 125.64509 | 112 ft | 0 kts | 319° |